sensor_id;sensor_type;location;lat;lon;timestamp;pressure;altitude;pressure_sealevel;temperature;humidity
57779;BME280;43608;49.486;9.640;2023-04-27T00:00:30;98887.72;;;1.47;78.86
57779;BME280;43608;49.486;9.640;2023-04-27T00:01:00;98900.09;;;1.53;78.83
57779;BME280;43608;49.486;9.640;2023-04-27T00:01:36;98859.41;;;1.34;78.71
57779;BME280;43608;49.486;9.640;2023-04-27T00:02:06;98884.28;;;1.48;79.00
57779;BME280;43608;49.486;9.640;2023-04-27T00:02:37;98861.94;;;1.32;78.77
57779;BME280;43608;49.486;9.640;2023-04-27T00:03:07;98867.31;;;1.37;79.17
57779;BME280;43608;49.486;9.640;2023-04-27T00:03:38;98880.66;;;1.45;79.09
57779;BME280;43608;49.486;9.640;2023-04-27T00:04:08;98871.69;;;1.37;79.39
57779;BME280;43608;49.486;9.640;2023-04-27T00:04:38;98880.56;;;1.42;79.05
57779;BME280;43608;49.486;9.640;2023-04-27T00:05:09;98890.28;;;1.46;78.98
57779;BME280;43608;49.486;9.640;2023-04-27T00:05:40;98869.06;;;1.37;78.85
57779;BME280;43608;49.486;9.640;2023-04-27T00:06:11;98879.69;;;1.43;78.89
57779;BME280;43608;49.486;9.640;2023-04-27T00:06:42;98871.69;;;1.37;79.26
57779;BME280;43608;49.486;9.640;2023-04-27T00:07:12;98878.88;;;1.44;78.87
57779;BME280;43608;49.486;9.640;2023-04-27T00:07:43;98875.22;;;1.39;79.18
57779;BME280;43608;49.486;9.640;2023-04-27T00:08:13;98851.34;;;1.28;79.02
57779;BME280;43608;49.486;9.640;2023-04-27T00:08:43;98874.38;;;1.40;78.85
57779;BME280;43608;49.486;9.640;2023-04-27T00:09:14;98881.38;;;1.41;78.81
57779;BME280;43608;49.486;9.640;2023-04-27T00:09:44;98891.06;;;1.43;78.86
57779;BME280;43608;49.486;9.640;2023-04-27T00:10:15;98884.00;;;1.41;78.94
57779;BME280;43608;49.486;9.640;2023-04-27T00:10:45;98869.72;;;1.31;78.75
57779;BME280;43608;49.486;9.640;2023-04-27T00:11:16;98873.34;;;1.35;78.83
57779;BME280;43608;49.486;9.640;2023-04-27T00:11:46;98877.72;;;1.36;79.05
57779;BME280;43608;49.486;9.640;2023-04-27T00:12:16;98884.75;;;1.37;78.92
57779;BME280;43608;49.486;9.640;2023-04-27T00:12:47;98862.53;;;1.24;78.75
57779;BME280;43608;49.486;9.640;2023-04-27T00:13:17;98874.91;;;1.29;79.02
57779;BME280;43608;49.486;9.640;2023-04-27T00:13:47;98882.00;;;1.34;78.96
57779;BME280;43608;49.486;9.640;2023-04-27T00:14:18;98883.72;;;1.33;78.88
57779;BME280;43608;49.486;9.640;2023-04-27T00:14:49;98885.44;;;1.32;78.93
57779;BME280;43608;49.486;9.640;2023-04-27T00:15:20;98880.22;;;1.32;78.73
57779;BME280;43608;49.486;9.640;2023-04-27T00:15:50;98822.34;;;0.96;78.71
57779;BME280;43608;49.486;9.640;2023-04-27T00:16:24;98877.50;;;1.29;78.89
57779;BME280;43608;49.486;9.640;2023-04-27T00:16:54;98880.06;;;1.28;79.29
57779;BME280;43608;49.486;9.640;2023-04-27T00:17:25;98871.22;;;1.24;79.29
57779;BME280;43608;49.486;9.640;2023-04-27T00:17:55;98878.34;;;1.28;79.00
57779;BME280;43608;49.486;9.640;2023-04-27T00:18:26;98878.28;;;1.27;78.93
57779;BME280;43608;49.486;9.640;2023-04-27T00:18:56;98849.97;;;1.13;79.00
57779;BME280;43608;49.486;9.640;2023-04-27T00:19:27;98872.00;;;1.22;79.19
57779;BME280;43608;49.486;9.640;2023-04-27T00:19:57;98869.41;;;1.22;78.87
57779;BME280;43608;49.486;9.640;2023-04-27T00:20:27;98870.34;;;1.24;79.15
57779;BME280;43608;49.486;9.640;2023-04-27T00:20:58;98850.69;;;1.09;79.03
57779;BME280;43608;49.486;9.640;2023-04-27T00:21:28;98869.44;;;1.23;79.17
57779;BME280;43608;49.486;9.640;2023-04-27T00:21:59;98878.97;;;1.21;78.65
57779;BME280;43608;49.486;9.640;2023-04-27T00:22:29;98868.38;;;1.18;78.74
57779;BME280;43608;49.486;9.640;2023-04-27T00:23:00;98870.22;;;1.21;79.05
57779;BME280;43608;49.486;9.640;2023-04-27T00:23:30;98874.63;;;1.22;79.23
57779;BME280;43608;49.486;9.640;2023-04-27T00:24:00;98876.34;;;1.21;79.21
57779;BME280;43608;49.486;9.640;2023-04-27T00:24:31;98844.41;;;1.04;78.78
57779;BME280;43608;49.486;9.640;2023-04-27T00:25:01;98852.44;;;1.10;79.11
57779;BME280;43608;49.486;9.640;2023-04-27T00:25:31;98862.34;;;1.19;79.23
57779;BME280;43608;49.486;9.640;2023-04-27T00:26:02;98837.28;;;1.00;78.89
57779;BME280;43608;49.486;9.640;2023-04-27T00:26:32;98860.47;;;1.15;79.28
57779;BME280;43608;49.486;9.640;2023-04-27T00:27:03;98870.13;;;1.18;79.45
57779;BME280;43608;49.486;9.640;2023-04-27T00:27:33;98860.34;;;1.12;79.56
57779;BME280;43608;49.486;9.640;2023-04-27T00:28:03;98862.28;;;1.18;79.59
57779;BME280;43608;49.486;9.640;2023-04-27T00:28:34;98832.78;;;0.96;79.55
57779;BME280;43608;49.486;9.640;2023-04-27T00:29:04;98840.91;;;1.04;79.66
57779;BME280;43608;49.486;9.640;2023-04-27T00:29:35;98855.97;;;1.11;79.68
57779;BME280;43608;49.486;9.640;2023-04-27T00:30:05;98846.31;;;1.08;79.71
57779;BME280;43608;49.486;9.640;2023-04-27T00:30:37;98845.41;;;1.08;79.50
57779;BME280;43608;49.486;9.640;2023-04-27T00:31:07;98859.44;;;1.11;79.61
57779;BME280;43608;49.486;9.640;2023-04-27T00:31:37;98853.34;;;1.11;79.91
57779;BME280;43608;49.486;9.640;2023-04-27T00:32:09;98862.13;;;1.13;79.92
57779;BME280;43608;49.486;9.640;2023-04-27T00:32:40;98828.53;;;0.98;79.69
57779;BME280;43608;49.486;9.640;2023-04-27T00:33:11;98840.06;;;1.05;80.02
57779;BME280;43608;49.486;9.640;2023-04-27T00:33:41;98857.75;;;1.12;79.79
57779;BME280;43608;49.486;9.640;2023-04-27T00:34:12;98843.50;;;1.04;80.08
57779;BME280;43608;49.486;9.640;2023-04-27T00:34:42;98859.44;;;1.11;80.07
57779;BME280;43608;49.486;9.640;2023-04-27T00:35:12;98854.09;;;1.07;79.97
57779;BME280;43608;49.486;9.640;2023-04-27T00:35:43;98854.00;;;1.05;79.84
57779;BME280;43608;49.486;9.640;2023-04-27T00:36:13;98841.84;;;1.06;79.79
57779;BME280;43608;49.486;9.640;2023-04-27T00:36:44;98859.31;;;1.07;79.85
57779;BME280;43608;49.486;9.640;2023-04-27T00:37:14;98861.06;;;1.08;80.23
57779;BME280;43608;49.486;9.640;2023-04-27T00:37:45;98844.19;;;0.98;80.45
57779;BME280;43608;49.486;9.640;2023-04-27T00:38:15;98859.31;;;1.07;80.08
57779;BME280;43608;49.486;9.640;2023-04-27T00:38:46;98866.22;;;1.06;80.08
57779;BME280;43608;49.486;9.640;2023-04-27T00:39:16;98846.94;;;1.03;80.22
57779;BME280;43608;49.486;9.640;2023-04-27T00:39:46;98834.47;;;0.94;80.30
57779;BME280;43608;49.486;9.640;2023-04-27T00:40:19;98850.28;;;0.98;80.03
57779;BME280;43608;49.486;9.640;2023-04-27T00:40:49;98844.13;;;0.96;80.25
57779;BME280;43608;49.486;9.640;2023-04-27T00:41:20;98841.53;;;0.96;80.12
57779;BME280;43608;49.486;9.640;2023-04-27T00:41:52;98845.88;;;0.97;80.17
57779;BME280;43608;49.486;9.640;2023-04-27T00:42:22;98847.81;;;1.02;79.99
57779;BME280;43608;49.486;9.640;2023-04-27T00:42:54;98858.28;;;1.03;80.29
57779;BME280;43608;49.486;9.640;2023-04-27T00:43:24;98849.41;;;0.98;80.09
57779;BME280;43608;49.486;9.640;2023-04-27T00:43:55;98842.31;;;0.94;79.87
57779;BME280;43608;49.486;9.640;2023-04-27T00:44:26;98844.84;;;0.92;79.80
57779;BME280;43608;49.486;9.640;2023-04-27T00:44:57;98856.47;;;1.01;79.72
57779;BME280;43608;49.486;9.640;2023-04-27T00:45:27;98855.50;;;0.98;79.64
57779;BME280;43608;49.486;9.640;2023-04-27T00:45:58;98855.50;;;0.98;79.74
57779;BME280;43608;49.486;9.640;2023-04-27T00:46:29;98844.72;;;0.89;79.94
57779;BME280;43608;49.486;9.640;2023-04-27T00:46:59;98837.59;;;0.84;79.70
57779;BME280;43608;49.486;9.640;2023-04-27T00:47:31;98856.34;;;0.97;79.42
57779;BME280;43608;49.486;9.640;2023-04-27T00:48:02;98837.63;;;0.85;79.78
57779;BME280;43608;49.486;9.640;2023-04-27T00:48:32;98852.78;;;0.95;79.58
57779;BME280;43608;49.486;9.640;2023-04-27T00:49:03;98841.19;;;0.87;79.55
57779;BME280;43608;49.486;9.640;2023-04-27T00:49:33;98850.06;;;0.92;79.76
57779;BME280;43608;49.486;9.640;2023-04-27T00:50:04;98848.41;;;0.94;80.01
57779;BME280;43608;49.486;9.640;2023-04-27T00:50:38;98832.47;;;0.87;80.13
57779;BME280;43608;49.486;9.640;2023-04-27T00:51:09;98843.91;;;0.90;79.86
57779;BME280;43608;49.486;9.640;2023-04-27T00:51:39;98840.34;;;0.88;80.06
57779;BME280;43608;49.486;9.640;2023-04-27T00:52:10;98834.97;;;0.84;79.74
57779;BME280;43608;49.486;9.640;2023-04-27T00:52:40;98848.31;;;0.91;80.03
57779;BME280;43608;49.486;9.640;2023-04-27T00:53:11;98830.56;;;0.82;79.87
57779;BME280;43608;49.486;9.640;2023-04-27T00:53:42;98844.63;;;0.86;80.36
57779;BME280;43608;49.486;9.640;2023-04-27T00:54:18;98847.28;;;0.88;80.14
57779;BME280;43608;49.486;9.640;2023-04-27T00:54:50;98841.75;;;0.78;80.31
57779;BME280;43608;49.486;9.640;2023-04-27T00:55:22;98858.75;;;0.91;80.42
57779;BME280;43608;49.486;9.640;2023-04-27T00:55:52;98852.41;;;0.85;80.15
57779;BME280;43608;49.486;9.640;2023-04-27T00:56:22;98856.91;;;0.89;80.40
57779;BME280;43608;49.486;9.640;2023-04-27T00:56:53;98857.72;;;0.88;80.40
57779;BME280;43608;49.486;9.640;2023-04-27T00:57:23;98847.09;;;0.83;80.60
57779;BME280;43608;49.486;9.640;2023-04-27T00:57:54;98852.41;;;0.85;80.17
57779;BME280;43608;49.486;9.640;2023-04-27T00:58:24;98839.09;;;0.77;80.43
57779;BME280;43608;49.486;9.640;2023-04-27T00:58:55;98859.47;;;0.87;80.51
57779;BME280;43608;49.486;9.640;2023-04-27T00:59:25;98852.41;;;0.85;80.43
57779;BME280;43608;49.486;9.640;2023-04-27T00:59:56;98854.94;;;0.83;80.32
57779;BME280;43608;49.486;9.640;2023-04-27T01:00:29;98853.19;;;0.82;80.53
57779;BME280;43608;49.486;9.640;2023-04-27T01:00:59;98835.47;;;0.73;80.32
57779;BME280;43608;49.486;9.640;2023-04-27T01:01:30;98855.78;;;0.82;80.79
57779;BME280;43608;49.486;9.640;2023-04-27T01:02:00;98856.72;;;0.84;80.67
57779;BME280;43608;49.486;9.640;2023-04-27T01:02:31;98829.91;;;0.64;80.52
57779;BME280;43608;49.486;9.640;2023-04-27T01:03:02;98857.44;;;0.80;80.40
57779;BME280;43608;49.486;9.640;2023-04-27T01:03:33;98862.72;;;0.81;80.64
57779;BME280;43608;49.486;9.640;2023-04-27T01:04:04;98852.03;;;0.75;80.69
57779;BME280;43608;49.486;9.640;2023-04-27T01:04:34;98859.22;;;0.81;80.69
57779;BME280;43608;49.486;9.640;2023-04-27T01:05:06;98851.13;;;0.73;80.42
57779;BME280;43608;49.486;9.640;2023-04-27T01:05:38;98849.31;;;0.72;80.63
57779;BME280;43608;49.486;9.640;2023-04-27T01:06:08;98843.88;;;0.66;80.45
57779;BME280;43608;49.486;9.640;2023-04-27T01:06:38;98857.16;;;0.72;80.63
57779;BME280;43608;49.486;9.640;2023-04-27T01:07:09;98869.53;;;0.78;80.92
57779;BME280;43608;49.486;9.640;2023-04-27T01:07:40;98866.03;;;0.77;80.60
57779;BME280;43608;49.486;9.640;2023-04-27T01:08:10;98859.72;;;0.71;80.47
57779;BME280;43608;49.486;9.640;2023-04-27T01:08:41;98852.59;;;0.67;80.70
57779;BME280;43608;49.486;9.640;2023-04-27T01:09:11;98869.44;;;0.75;80.26
57779;BME280;43608;49.486;9.640;2023-04-27T01:09:42;98803.72;;;0.38;80.56
57779;BME280;43608;49.486;9.640;2023-04-27T01:10:12;98850.78;;;0.64;80.74
57779;BME280;43608;49.486;9.640;2023-04-27T01:10:43;98856.91;;;0.66;80.46
57779;BME280;43608;49.486;9.640;2023-04-27T01:11:13;98869.38;;;0.73;80.66
57779;BME280;43608;49.486;9.640;2023-04-27T01:11:47;98854.25;;;0.64;80.39
57779;BME280;43608;49.486;9.640;2023-04-27T01:12:17;98869.13;;;0.67;80.48
57779;BME280;43608;49.486;9.640;2023-04-27T01:12:48;98871.78;;;0.69;80.39
57779;BME280;43608;49.486;9.640;2023-04-27T01:13:18;98852.47;;;0.63;80.29
57779;BME280;43608;49.486;9.640;2023-04-27T01:13:50;98877.06;;;0.70;80.47
57779;BME280;43608;49.486;9.640;2023-04-27T01:14:20;98871.78;;;0.69;80.32
57779;BME280;43608;49.486;9.640;2023-04-27T01:14:51;98869.03;;;0.64;80.77
57779;BME280;43608;49.486;9.640;2023-04-27T01:15:21;98850.34;;;0.53;80.09
57779;BME280;43608;49.486;9.640;2023-04-27T01:15:52;98871.75;;;0.67;80.06
57779;BME280;43608;49.486;9.640;2023-04-27T01:16:22;98872.63;;;0.68;80.14
57779;BME280;43608;49.486;9.640;2023-04-27T01:16:52;98865.47;;;0.62;80.31
57779;BME280;43608;49.486;9.640;2023-04-27T01:17:23;98869.03;;;0.64;80.16
57779;BME280;43608;49.486;9.640;2023-04-27T01:18:00;98868.13;;;0.63;80.64
57779;BME280;43608;49.486;9.640;2023-04-27T01:18:31;98869.84;;;0.63;80.64
57779;BME280;43608;49.486;9.640;2023-04-27T01:19:02;98868.03;;;0.60;80.58
57779;BME280;43608;49.486;9.640;2023-04-27T01:19:33;98864.44;;;0.58;80.74
57779;BME280;43608;49.486;9.640;2023-04-27T01:20:05;98878.59;;;0.65;80.83
57779;BME280;43608;49.486;9.640;2023-04-27T01:20:39;98869.72;;;0.60;80.73
57779;BME280;43608;49.486;9.640;2023-04-27T01:21:11;98863.53;;;0.56;81.05
57779;BME280;43608;49.486;9.640;2023-04-27T01:21:41;98876.78;;;0.62;80.85
57779;BME280;43608;49.486;9.640;2023-04-27T01:22:12;98873.22;;;0.60;80.91
57779;BME280;43608;49.486;9.640;2023-04-27T01:22:44;98851.13;;;0.51;80.78
57779;BME280;43608;49.486;9.640;2023-04-27T01:23:15;98863.47;;;0.55;80.96
57779;BME280;43608;49.486;9.640;2023-04-27T01:23:45;98868.78;;;0.58;80.69
57779;BME280;43608;49.486;9.640;2023-04-27T01:24:15;98861.69;;;0.54;81.00
57779;BME280;43608;49.486;9.640;2023-04-27T01:24:46;98856.28;;;0.49;80.73
57779;BME280;43608;49.486;9.640;2023-04-27T01:25:17;98873.13;;;0.57;80.73
57779;BME280;43608;49.486;9.640;2023-04-27T01:25:49;98866.84;;;0.52;80.61
57779;BME280;43608;49.486;9.640;2023-04-27T01:26:19;98848.28;;;0.44;80.76
57779;BME280;43608;49.486;9.640;2023-04-27T01:26:49;98865.16;;;0.54;81.00
57779;BME280;43608;49.486;9.640;2023-04-27T01:27:23;98872.16;;;0.55;80.98
57779;BME280;43608;49.486;9.640;2023-04-27T01:27:53;98846.47;;;0.42;81.48
57779;BME280;43608;49.486;9.640;2023-04-27T01:28:23;98856.28;;;0.49;81.43
57779;BME280;43608;49.486;9.640;2023-04-27T01:28:54;98866.84;;;0.52;81.22
57779;BME280;43608;49.486;9.640;2023-04-27T01:29:24;98857.88;;;0.45;81.36
57779;BME280;43608;49.486;9.640;2023-04-27T01:29:55;98858.72;;;0.44;81.53
57779;BME280;43608;49.486;9.640;2023-04-27T01:30:25;98869.44;;;0.52;81.53
57779;BME280;43608;49.486;9.640;2023-04-27T01:30:57;98852.50;;;0.41;81.71
57779;BME280;43608;49.486;9.640;2023-04-27T01:31:28;98875.50;;;0.51;81.55
57779;BME280;43608;49.486;9.640;2023-04-27T01:31:58;98862.22;;;0.45;81.70
57779;BME280;43608;49.486;9.640;2023-04-27T01:32:28;98856.88;;;0.42;81.60
57779;BME280;43608;49.486;9.640;2023-04-27T01:32:59;98870.09;;;0.46;81.31
57779;BME280;43608;49.486;9.640;2023-04-27T01:33:29;98864.00;;;0.46;81.25
57779;BME280;43608;49.486;9.640;2023-04-27T01:34:00;98865.59;;;0.42;81.38
57779;BME280;43608;49.486;9.640;2023-04-27T01:34:30;98869.16;;;0.44;81.34
57779;BME280;43608;49.486;9.640;2023-04-27T01:35:01;98871.81;;;0.46;81.36
57779;BME280;43608;49.486;9.640;2023-04-27T01:35:31;98870.03;;;0.45;81.23
57779;BME280;43608;49.486;9.640;2023-04-27T01:36:02;98858.44;;;0.37;81.36
57779;BME280;43608;49.486;9.640;2023-04-27T01:36:32;98866.41;;;0.41;81.00
57779;BME280;43608;49.486;9.640;2023-04-27T01:37:03;98880.41;;;0.43;81.34
57779;BME280;43608;49.486;9.640;2023-04-27T01:37:33;98872.44;;;0.40;81.42
57779;BME280;43608;49.486;9.640;2023-04-27T01:38:04;98873.31;;;0.39;81.56
57779;BME280;43608;49.486;9.640;2023-04-27T01:38:35;98866.09;;;0.33;81.61
57779;BME280;43608;49.486;9.640;2023-04-27T01:39:06;98869.63;;;0.34;81.25
57779;BME280;43608;49.486;9.640;2023-04-27T01:39:38;98860.00;;;0.33;81.26
57779;BME280;43608;49.486;9.640;2023-04-27T01:40:09;98854.50;;;0.25;81.66
57779;BME280;43608;49.486;9.640;2023-04-27T01:40:39;98855.25;;;0.23;81.61
57779;BME280;43608;49.486;9.640;2023-04-27T01:41:10;98864.22;;;0.29;81.27
57779;BME280;43608;49.486;9.640;2023-04-27T01:41:40;98875.72;;;0.35;81.50
57779;BME280;43608;49.486;9.640;2023-04-27T01:42:10;98871.28;;;0.32;81.50
57779;BME280;43608;49.486;9.640;2023-04-27T01:42:41;98857.88;;;0.23;81.54
57779;BME280;43608;49.486;9.640;2023-04-27T01:43:11;98878.31;;;0.35;81.85
57779;BME280;43608;49.486;9.640;2023-04-27T01:43:41;98880.09;;;0.36;81.44
57779;BME280;43608;49.486;9.640;2023-04-27T01:44:12;98881.75;;;0.33;81.54
57779;BME280;43608;49.486;9.640;2023-04-27T01:44:43;98863.97;;;0.23;81.71
57779;BME280;43608;49.486;9.640;2023-04-27T01:45:13;98885.25;;;0.34;81.48
57779;BME280;43608;49.486;9.640;2023-04-27T01:45:44;98878.13;;;0.30;81.63
57779;BME280;43608;49.486;9.640;2023-04-27T01:46:14;98879.84;;;0.29;81.87
57779;BME280;43608;49.486;9.640;2023-04-27T01:46:44;98885.13;;;0.31;81.76
57779;BME280;43608;49.486;9.640;2023-04-27T01:47:15;98884.31;;;0.32;82.04
57779;BME280;43608;49.486;9.640;2023-04-27T01:47:46;98863.91;;;0.22;81.83
57779;BME280;43608;49.486;9.640;2023-04-27T01:48:16;98886.91;;;0.32;81.94
57779;BME280;43608;49.486;9.640;2023-04-27T01:48:47;98879.81;;;0.28;81.74
57779;BME280;43608;49.486;9.640;2023-04-27T01:49:17;98877.19;;;0.28;82.06
57779;BME280;43608;49.486;9.640;2023-04-27T01:49:47;98884.25;;;0.30;82.01
57779;BME280;43608;49.486;9.640;2023-04-27T01:50:18;98860.22;;;0.16;81.64
57779;BME280;43608;49.486;9.640;2023-04-27T01:50:49;98879.84;;;0.29;82.04
57779;BME280;43608;49.486;9.640;2023-04-27T01:51:19;98866.34;;;0.17;81.92
57779;BME280;43608;49.486;9.640;2023-04-27T01:51:50;98868.19;;;0.20;82.22
57779;BME280;43608;49.486;9.640;2023-04-27T01:52:20;98878.78;;;0.24;82.15
57779;BME280;43608;49.486;9.640;2023-04-27T01:52:51;98873.41;;;0.20;82.24
57779;BME280;43608;49.486;9.640;2023-04-27T01:53:21;98890.19;;;0.26;82.36
57779;BME280;43608;49.486;9.640;2023-04-27T01:53:51;98894.56;;;0.27;82.03
57779;BME280;43608;49.486;9.640;2023-04-27T01:54:22;98888.34;;;0.24;82.53
57779;BME280;43608;49.486;9.640;2023-04-27T01:54:52;98894.56;;;0.27;82.42
57779;BME280;43608;49.486;9.640;2023-04-27T01:55:22;98882.16;;;0.22;82.41
57779;BME280;43608;49.486;9.640;2023-04-27T01:55:53;98870.53;;;0.13;82.40
57779;BME280;43608;49.486;9.640;2023-04-27T01:56:23;98889.25;;;0.26;82.38
57779;BME280;43608;49.486;9.640;2023-04-27T01:56:54;98878.63;;;0.20;82.57
57779;BME280;43608;49.486;9.640;2023-04-27T01:57:24;98877.72;;;0.19;82.61
57779;BME280;43608;49.486;9.640;2023-04-27T01:57:55;98889.22;;;0.24;82.70
57779;BME280;43608;49.486;9.640;2023-04-27T01:58:26;98891.81;;;0.24;82.55
57779;BME280;43608;49.486;9.640;2023-04-27T01:58:56;98885.72;;;0.24;82.79
57779;BME280;43608;49.486;9.640;2023-04-27T01:59:27;98878.53;;;0.18;82.73
57779;BME280;43608;49.486;9.640;2023-04-27T01:59:57;98885.59;;;0.21;82.71
57779;BME280;43608;49.486;9.640;2023-04-27T02:00:28;98886.53;;;0.23;82.60
57779;BME280;43608;49.486;9.640;2023-04-27T02:00:58;98868.69;;;0.11;82.69
57779;BME280;43608;49.486;9.640;2023-04-27T02:01:28;98877.53;;;0.14;82.70
57779;BME280;43608;49.486;9.640;2023-04-27T02:02:00;98877.59;;;0.16;82.97
57779;BME280;43608;49.486;9.640;2023-04-27T02:02:30;98885.59;;;0.21;82.66
57779;BME280;43608;49.486;9.640;2023-04-27T02:03:01;98874.09;;;0.15;82.93
57779;BME280;43608;49.486;9.640;2023-04-27T02:03:31;98875.88;;;0.16;82.93
57779;BME280;43608;49.486;9.640;2023-04-27T02:04:01;98868.75;;;0.12;82.63
57779;BME280;43608;49.486;9.640;2023-04-27T02:04:33;98885.66;;;0.22;82.73
57779;BME280;43608;49.486;9.640;2023-04-27T02:05:06;98873.09;;;0.12;82.93
57779;BME280;43608;49.486;9.640;2023-04-27T02:05:37;98879.38;;;0.17;82.87
57779;BME280;43608;49.486;9.640;2023-04-27T02:06:07;98881.22;;;0.20;82.90
57779;BME280;43608;49.486;9.640;2023-04-27T02:06:38;98889.16;;;0.23;82.64
57779;BME280;43608;49.486;9.640;2023-04-27T02:07:08;98882.03;;;0.19;83.10
57779;BME280;43608;49.486;9.640;2023-04-27T02:07:39;98883.88;;;0.21;82.99
57779;BME280;43608;49.486;9.640;2023-04-27T02:08:09;98869.53;;;0.10;83.04
57779;BME280;43608;49.486;9.640;2023-04-27T02:08:40;98883.88;;;0.21;83.26
57779;BME280;43608;49.486;9.640;2023-04-27T02:09:10;98854.53;;;0.04;83.07
57779;BME280;43608;49.486;9.640;2023-04-27T02:09:41;98826.91;;;-0.13;83.10
57779;BME280;43608;49.486;9.640;2023-04-27T02:10:11;98885.47;;;0.18;82.86
57779;BME280;43608;49.486;9.640;2023-04-27T02:10:41;98874.03;;;0.14;83.18
57779;BME280;43608;49.486;9.640;2023-04-27T02:11:12;98874.03;;;0.14;83.02
57779;BME280;43608;49.486;9.640;2023-04-27T02:11:42;98866.91;;;0.10;82.99
57779;BME280;43608;49.486;9.640;2023-04-27T02:12:12;98889.09;;;0.21;83.14
57779;BME280;43608;49.486;9.640;2023-04-27T02:12:43;98891.72;;;0.21;83.05
57779;BME280;43608;49.486;9.640;2023-04-27T02:13:13;98878.38;;;0.13;82.99
57779;BME280;43608;49.486;9.640;2023-04-27T02:13:44;98886.50;;;0.21;83.12
57779;BME280;43608;49.486;9.640;2023-04-27T02:14:14;98881.84;;;0.14;83.21
57779;BME280;43608;49.486;9.640;2023-04-27T02:14:45;98893.41;;;0.21;83.10
57779;BME280;43608;49.486;9.640;2023-04-27T02:15:15;98883.69;;;0.16;83.24
57779;BME280;43608;49.486;9.640;2023-04-27T02:15:46;98880.97;;;0.13;83.30
57779;BME280;43608;49.486;9.640;2023-04-27T02:16:16;98889.72;;;0.15;83.36
57779;BME280;43608;49.486;9.640;2023-04-27T02:16:46;98882.63;;;0.11;83.43
57779;BME280;43608;49.486;9.640;2023-04-27T02:17:17;98882.66;;;0.13;83.28
57779;BME280;43608;49.486;9.640;2023-04-27T02:17:47;98892.47;;;0.19;83.18
57779;BME280;43608;49.486;9.640;2023-04-27T02:18:17;98891.66;;;0.20;83.47
57779;BME280;43608;49.486;9.640;2023-04-27T02:18:49;98890.63;;;0.16;83.32
57779;BME280;43608;49.486;9.640;2023-04-27T02:19:22;98889.81;;;0.17;83.32
57779;BME280;43608;49.486;9.640;2023-04-27T02:19:53;98887.81;;;0.11;83.04
57779;BME280;43608;49.486;9.640;2023-04-27T02:20:23;98892.41;;;0.17;82.89
57779;BME280;43608;49.486;9.640;2023-04-27T02:20:53;98888.72;;;0.12;83.14
57779;BME280;43608;49.486;9.640;2023-04-27T02:21:24;98894.88;;;0.14;83.34
57779;BME280;43608;49.486;9.640;2023-04-27T02:21:54;98891.34;;;0.12;83.20
57779;BME280;43608;49.486;9.640;2023-04-27T02:22:25;98866.50;;;-0.01;83.45
57779;BME280;43608;49.486;9.640;2023-04-27T02:22:55;98896.56;;;0.12;83.13
57779;BME280;43608;49.486;9.640;2023-04-27T02:23:25;98878.72;;;0.00;83.42
57779;BME280;43608;49.486;9.640;2023-04-27T02:23:56;98892.97;;;0.10;83.24
57779;BME280;43608;49.486;9.640;2023-04-27T02:24:26;98888.53;;;0.07;83.49
57779;BME280;43608;49.486;9.640;2023-04-27T02:24:56;98899.84;;;0.08;83.85
57779;BME280;43608;49.486;9.640;2023-04-27T02:25:27;98889.28;;;0.05;83.60
57779;BME280;43608;49.486;9.640;2023-04-27T02:25:57;98894.50;;;0.05;83.34
57779;BME280;43608;49.486;9.640;2023-04-27T02:26:27;98891.84;;;0.03;83.77
57779;BME280;43608;49.486;9.640;2023-04-27T02:27:01;98880.28;;;-0.04;83.32
57779;BME280;43608;49.486;9.640;2023-04-27T02:27:32;98866.88;;;-0.13;83.20
57779;BME280;43608;49.486;9.640;2023-04-27T02:28:04;98887.41;;;0.01;83.31
57779;BME280;43608;49.486;9.640;2023-04-27T02:28:34;98895.22;;;0.01;83.38
57779;BME280;43608;49.486;9.640;2023-04-27T02:29:04;98902.16;;;0.00;83.24
57779;BME280;43608;49.486;9.640;2023-04-27T02:29:35;98867.50;;;-0.19;83.26
57779;BME280;43608;49.486;9.640;2023-04-27T02:30:09;98897.75;;;-0.01;83.30
57779;BME280;43608;49.486;9.640;2023-04-27T02:30:40;98883.59;;;-0.08;83.31
57779;BME280;43608;49.486;9.640;2023-04-27T02:31:10;98880.91;;;-0.09;83.07
57779;BME280;43608;49.486;9.640;2023-04-27T02:31:41;98889.69;;;-0.07;83.39
57779;BME280;43608;49.486;9.640;2023-04-27T02:32:11;98869.28;;;-0.18;83.26
57779;BME280;43608;49.486;9.640;2023-04-27T02:32:42;98894.19;;;-0.03;83.57
57779;BME280;43608;49.486;9.640;2023-04-27T02:33:13;98896.75;;;-0.05;83.32
57779;BME280;43608;49.486;9.640;2023-04-27T02:33:43;98886.22;;;-0.08;83.40
57779;BME280;43608;49.486;9.640;2023-04-27T02:34:13;98886.97;;;-0.10;83.47
57779;BME280;43608;49.486;9.640;2023-04-27T02:34:44;98883.47;;;-0.11;83.54
57779;BME280;43608;49.486;9.640;2023-04-27T02:35:14;98892.25;;;-0.09;83.51
57779;BME280;43608;49.486;9.640;2023-04-27T02:35:45;98889.56;;;-0.10;83.64
57779;BME280;43608;49.486;9.640;2023-04-27T02:36:15;98879.81;;;-0.14;83.57
57779;BME280;43608;49.486;9.640;2023-04-27T02:36:45;98879.75;;;-0.16;83.54
57779;BME280;43608;49.486;9.640;2023-04-27T02:37:16;98884.16;;;-0.15;83.51
57779;BME280;43608;49.486;9.640;2023-04-27T02:37:46;98879.00;;;-0.13;83.42
57779;BME280;43608;49.486;9.640;2023-04-27T02:38:16;98879.81;;;-0.14;83.20
57779;BME280;43608;49.486;9.640;2023-04-27T02:38:47;98845.91;;;-0.37;83.14
57779;BME280;43608;49.486;9.640;2023-04-27T02:39:17;98889.44;;;-0.13;83.02
57779;BME280;43608;49.486;9.640;2023-04-27T02:39:48;98897.44;;;-0.09;83.25
57779;BME280;43608;49.486;9.640;2023-04-27T02:40:18;98885.94;;;-0.14;83.19
57779;BME280;43608;49.486;9.640;2023-04-27T02:40:52;98892.09;;;-0.12;83.19
57779;BME280;43608;49.486;9.640;2023-04-27T02:41:24;98890.25;;;-0.14;83.20
57779;BME280;43608;49.486;9.640;2023-04-27T02:41:57;98892.78;;;-0.16;83.15
57779;BME280;43608;49.486;9.640;2023-04-27T02:42:28;98896.44;;;-0.12;82.87
57779;BME280;43608;49.486;9.640;2023-04-27T02:42:59;98902.50;;;-0.12;82.96
57779;BME280;43608;49.486;9.640;2023-04-27T02:43:29;98896.44;;;-0.12;82.88
57779;BME280;43608;49.486;9.640;2023-04-27T02:43:59;98893.69;;;-0.15;82.89
57779;BME280;43608;49.486;9.640;2023-04-27T02:44:29;98899.91;;;-0.12;83.46
57779;BME280;43608;49.486;9.640;2023-04-27T02:45:00;98905.13;;;-0.12;83.29